Darstellungsparameter: Aktuell verwendete Einstellungen:
Skalierung der Graphiken ... ?
xyx+y,   Skalierungsfaktor:      Skalierung: Modus: x, Faktor: 1
Darstellungszeitraum ... ?
Vom - - bis: - -   Zeitraum: 03.08.2004 - 02.08.2005
Min/Max/Avg-Anzeige ... ?
Zeige MMA aktuell
Zeige MMA Monat
Zeige MMA alles
Zeige --A aktuell
Zeige --A Monat
Zeige --A alles
Keine MMA-Anzeige
MMA:
Keine MMA-Graphiken
MMA-Basis: 03.08.2004 - 02.08.2005
Quicknavigation für Darstellung... ?
Tage:      1T, 2T, 3T, 5T -1T -2T -3T -5T +1T +2T +3T +5T
Wochen: 1W, 2W, 3W -1W -2W -3W +1W +2W +3W
Monate: 1M, 3M, 6M -1M -3M -6M +1M +3M +6M
Jahre:    1J, 3J, 5J, 10J -1J -3J -5J -10J +1J +3J +5J +10J
Nutze für die Darstellung ... ?
Originaldaten oder ...
Mittelwerte Minima Maxima auf...
Stundenbasis Tagesbasis Wochenbasis
Monatsbasis Jahresbasis      Datenbasis: Mittelwerte auf Tagesbasis
Darstellen als:
Statistik (Auto) Statistik J:M      Darstellung:
Zur Graphik,    zurück zur Übersicht aller Sensoren.
 
Tabellarische Datenbersicht: ?
 
Sensor: Nr:Datum:Temp:Abs-Feuchte:Windchill:Wind:
Aussen-T/F 1 03-08-2004 00:00:00 24.1975 C 10.83 g/m*3 24.2 C 0 km/h
2 04-08-2004 00:00:00 23.40756 C 13.04 g/m*3 23.41 C 0 km/h
3 05-08-2004 00:00:00 25.28167 C 12.69 g/m*3 25.28 C 0 km/h
4 06-08-2004 00:00:00 25.0625 C 12.09 g/m*3 25.06 C 0 km/h
5 07-08-2004 00:00:00 24.03167 C 14.41 g/m*3 24.03 C 0 km/h
6 08-08-2004 00:00:00 24.36 C 13.84 g/m*3 24.36 C 0 km/h
7 09-08-2004 00:00:00 25.4775 C 10.89 g/m*3 25.48 C 0 km/h
8 10-08-2004 00:00:00 22.66333 C 11.69 g/m*3 22.66 C 0 km/h
9 11-08-2004 00:00:00 22.42804 C 14.99 g/m*3 22.43 C 0 km/h
10 12-08-2004 00:00:00 20.15417 C 13.25 g/m*3 20.15 C 0 km/h
11 13-08-2004 00:00:00 17.9625 C 11.42 g/m*3 17.96 C 0 km/h
12 14-08-2004 00:00:00 18.08333 C 12.27 g/m*3 18.08 C 0 km/h
13 15-08-2004 00:00:00 21.52708 C 11.93 g/m*3 21.53 C 0 km/h
14 16-08-2004 00:00:00 20.10625 C 12.61 g/m*3 20.11 C 0 km/h
15 17-08-2004 00:00:00 20.58958 C 13.87 g/m*3 20.59 C 0 km/h
16 18-08-2004 00:00:00 22.67292 C 13.2 g/m*3 22.67 C 0 km/h
17 19-08-2004 00:00:00 21.05417 C 11.68 g/m*3 21.05 C 0 km/h
18 20-08-2004 00:00:00 18.89583 C 10.4 g/m*3 18.9 C 0 km/h
19 21-08-2004 00:00:00 15.52708 C 10.53 g/m*3 15.53 C 0 km/h
20 22-08-2004 00:00:00 16.41042 C 9.01 g/m*3 16.41 C 0 km/h
21 23-08-2004 00:00:00 16.42708 C 10.17 g/m*3 16.43 C 0 km/h
22 24-08-2004 00:00:00 17.42083 C 11.51 g/m*3 17.42 C 0 km/h
23 25-08-2004 00:00:00 16.20847 C 10.15 g/m*3 16.21 C 0 km/h
24 26-08-2004 00:00:00 16.76083 C 9.98 g/m*3 16.76 C 0 km/h
25 27-08-2004 00:00:00 15.82269 C 9.42 g/m*3 15.82 C 0 km/h
Sensor: Nr:Datum:Temp:Abs-Feuchte:Windchill:Wind:
Aussen-T/F 26 28-08-2004 00:00:00 17.58 C 12.34 g/m*3 17.58 C 0 km/h
27 29-08-2004 00:00:00 18.84917 C 11.59 g/m*3 18.85 C 0 km/h
28 30-08-2004 00:00:00 15.81333 C 10.43 g/m*3 15.81 C 0 km/h
29 31-08-2004 00:00:00 14.84333 C 8.88 g/m*3 14.84 C 0 km/h
30 01-09-2004 00:00:00 15.91667 C 9.07 g/m*3 15.92 C 0 km/h
31 02-09-2004 00:00:00 17.21429 C 9.62 g/m*3 17.21 C 0 km/h
32 03-09-2004 00:00:00 20.0275 C 11.76 g/m*3 20.03 C 0 km/h
33 04-09-2004 00:00:00 21.15083 C 12.63 g/m*3 21.15 C 0 km/h
34 05-09-2004 00:00:00 21.63833 C 12.6 g/m*3 21.64 C 0 km/h
35 06-09-2004 00:00:00 20.35 C 10.92 g/m*3 20.35 C 0 km/h
36 07-09-2004 00:00:00 21.00167 C 11.07 g/m*3 21 C 0 km/h
37 08-09-2004 00:00:00 20.15294 C 10.46 g/m*3 20.15 C 0 km/h
38 09-09-2004 00:00:00 18.48167 C 8.08 g/m*3 18.48 C 0 km/h
39 10-09-2004 00:00:00 17.9825 C 8.26 g/m*3 17.98 C 0 km/h
40 11-09-2004 00:00:00 20.54583 C 12.35 g/m*3 20.55 C 0 km/h
41 12-09-2004 00:00:00 17.1475 C 9.04 g/m*3 17.15 C 0 km/h
42 13-09-2004 00:00:00 17.07 C 8.88 g/m*3 17.07 C 0 km/h
43 14-09-2004 00:00:00 17.45462 C 8.44 g/m*3 17.45 C 0 km/h
44 15-09-2004 00:00:00 14.54333 C 8.16 g/m*3 14.54 C 0 km/h
45 16-09-2004 00:00:00 12.64 C 7.27 g/m*3 12.64 C 0 km/h
46 17-09-2004 00:00:00 13.2175 C 7.39 g/m*3 13.22 C 0 km/h
47 18-09-2004 00:00:00 15.71667 C 8.66 g/m*3 15.72 C 0 km/h
48 19-09-2004 00:00:00 16.38 C 10.18 g/m*3 16.38 C 0 km/h
49 20-09-2004 00:00:00 13.69833 C 7.61 g/m*3 13.7 C 0 km/h
50 21-09-2004 00:00:00 15.01167 C 6.9 g/m*3 15.01 C 0 km/h
Sensor: Nr:Datum:Temp:Abs-Feuchte:Windchill:Wind:
Aussen-T/F 51 22-09-2004 00:00:00 12.50168 C 7.63 g/m*3 12.5 C 0 km/h
52 23-09-2004 00:00:00 13.44917 C 10.41 g/m*3 13.45 C 0 km/h
53 24-09-2004 00:00:00 12.08833 C 7.68 g/m*3 12.09 C 0 km/h
54 25-09-2004 00:00:00 12.41167 C 7.54 g/m*3 12.41 C 0 km/h
55 26-09-2004 00:00:00 12.71667 C 8.34 g/m*3 12.72 C 0 km/h
56 27-09-2004 00:00:00 13.985 C 9.75 g/m*3 13.99 C 0 km/h
57 28-09-2004 00:00:00 15.85833 C 10.38 g/m*3 15.86 C 0 km/h
58 29-09-2004 00:00:00 15.4525 C 8.97 g/m*3 15.45 C 0 km/h
59 30-09-2004 00:00:00 13.13583 C 8.54 g/m*3 13.14 C 0 km/h
60 01-10-2004 00:00:00 15.1775 C 9.42 g/m*3 15.18 C 0 km/h
61 02-10-2004 00:00:00 14.82333 C 9.08 g/m*3 14.82 C 0 km/h
62 03-10-2004 00:00:00 13.56417 C 8.33 g/m*3 13.56 C 0 km/h
63 04-10-2004 00:00:00 16.06303 C 9.8 g/m*3 16.06 C 0 km/h
64 05-10-2004 00:00:00 19.11667 C 11.19 g/m*3 19.12 C 0 km/h
65 06-10-2004 00:00:00 14.425 C 9.96 g/m*3 14.43 C 0 km/h
66 07-10-2004 00:00:00 11.63417 C 7.67 g/m*3 11.63 C 0 km/h
67 08-10-2004 00:00:00 9.55667 C 7.63 g/m*3 9.56 C 0 km/h
68 09-10-2004 00:00:00 10.71833 C 7.51 g/m*3 10.72 C 0 km/h
69 10-10-2004 00:00:00 9.49167 C 6.16 g/m*3 9.49 C 0 km/h
70 11-10-2004 00:00:00 8.54167 C 5.21 g/m*3 8.54 C 0 km/h
71 12-10-2004 00:00:00 8.30333 C 5.07 g/m*3 8.3 C 0 km/h
72 13-10-2004 00:00:00 9.11167 C 6.86 g/m*3 9.11 C 0 km/h
73 14-10-2004 00:00:00 11.28417 C 8.04 g/m*3 11.28 C 0 km/h
74 15-10-2004 00:00:00 10.13917 C 7.5 g/m*3 10.14 C 0 km/h
75 16-10-2004 00:00:00 7.7475 C 6.95 g/m*3 7.75 C 0 km/h
Sensor: Nr:Datum:Temp:Abs-Feuchte:Windchill:Wind:
Aussen-T/F 76 17-10-2004 00:00:00 8.67143 C 6.95 g/m*3 8.67 C 0 km/h
77 18-10-2004 00:00:00 9.92417 C 6.91 g/m*3 9.92 C 0 km/h
78 19-10-2004 00:00:00 8.205 C 7.02 g/m*3 8.21 C 0 km/h
79 20-10-2004 00:00:00 12.1075 C 9.58 g/m*3 12.11 C 0 km/h
80 21-10-2004 00:00:00 14.14083 C 8.35 g/m*3 14.14 C 0 km/h
81 22-10-2004 00:00:00 10.405 C 7.51 g/m*3 10.41 C 0 km/h
82 23-10-2004 00:00:00 14.51083 C 8.98 g/m*3 14.51 C 0 km/h
83 24-10-2004 00:00:00 15.26 C 10.21 g/m*3 15.26 C 0 km/h
84 25-10-2004 00:00:00 14.77917 C 8.83 g/m*3 14.78 C 0 km/h
85 26-10-2004 00:00:00 10.89917 C 7.87 g/m*3 10.9 C 0 km/h
86 27-10-2004 00:00:00 9.63083 C 7.31 g/m*3 9.63 C 0 km/h
87 28-10-2004 00:00:00 12.44833 C 8.74 g/m*3 12.45 C 0 km/h
88 29-10-2004 00:00:00 12.78908 C 9.56 g/m*3 12.79 C 0 km/h
89 30-10-2004 00:00:00 10.50417 C 8.76 g/m*3 10.5 C 0 km/h
90 31-10-2004 00:00:00 10.9848 C 8.21 g/m*3 10.98 C 0 km/h
91 01-11-2004 00:00:00 9.905 C 7.35 g/m*3 9.9 C 0 km/h
92 02-11-2004 00:00:00 10.325 C 7.68 g/m*3 10.33 C 0 km/h
93 03-11-2004 00:00:00 10.58917 C 8.6 g/m*3 10.59 C 0 km/h
94 04-11-2004 00:00:00 10.43417 C 9.03 g/m*3 10.43 C 0 km/h
95 05-11-2004 00:00:00 8.9725 C 6.72 g/m*3 8.97 C 0 km/h
96 06-11-2004 00:00:00 7.45417 C 6.76 g/m*3 7.45 C 0 km/h
97 07-11-2004 00:00:00 5.835 C 6.43 g/m*3 5.84 C 0 km/h
98 08-11-2004 00:00:00 3.9825 C 5.85 g/m*3 3.98 C 0 km/h
99 09-11-2004 00:00:00 2.1375 C 4.89 g/m*3 2.14 C 0 km/h
100 10-11-2004 00:00:00 1.37667 C 4.98 g/m*3 1.38 C 0 km/h
Sensor: Nr:Datum:Temp:Abs-Feuchte:Windchill:Wind:
Aussen-T/F 101 11-11-2004 00:00:00 3.1563 C 5.18 g/m*3 3.16 C 0 km/h
102 12-11-2004 00:00:00 4.21333 C 5.29 g/m*3 4.21 C 0 km/h
103 13-11-2004 00:00:00 4.75583 C 5.38 g/m*3 4.76 C 0 km/h
104 14-11-2004 00:00:00 3.52333 C 4.99 g/m*3 3.52 C 0 km/h
105 15-11-2004 00:00:00 2.90583 C 4.99 g/m*3 2.91 C 0 km/h
106 16-11-2004 00:00:00 6.5475 C 5.87 g/m*3 6.55 C 0 km/h
107 17-11-2004 00:00:00 9.91917 C 7.05 g/m*3 9.92 C 0 km/h
108 18-11-2004 00:00:00 9.40583 C 7.16 g/m*3 9.41 C 0 km/h
109 19-11-2004 00:00:00 3.91083 C 4.5 g/m*3 3.91 C 0 km/h
110 20-11-2004 00:00:00 2.23583 C 3.44 g/m*3 2.24 C 0 km/h
111 21-11-2004 00:00:00 0.33333 C 3.81 g/m*3 0.33 C 0 km/h
112 22-11-2004 00:00:00 8.65583 C 6.81 g/m*3 8.66 C 0 km/h
113 23-11-2004 00:00:00 7.97563 C 6.86 g/m*3 7.98 C 0 km/h
114 24-11-2004 00:00:00 1.78417 C 4.76 g/m*3 1.78 C 0 km/h
115 25-11-2004 00:00:00 -0.49667 C 4 g/m*3 -0.5 C 0 km/h
116 26-11-2004 00:00:00 3.6775 C 4.77 g/m*3 3.68 C 0 km/h
117 27-11-2004 00:00:00 7.69167 C 6.37 g/m*3 7.69 C 0 km/h
118 28-11-2004 00:00:00 8.34417 C 6.1 g/m*3 8.34 C 0 km/h
119 29-11-2004 00:00:00 5.86583 C 5.62 g/m*3 5.87 C 0 km/h
120 30-11-2004 00:00:00 2.81167 C 4.91 g/m*3 2.81 C 0 km/h
121 01-12-2004 00:00:00 4.71167 C 5.16 g/m*3 4.71 C 0 km/h
122 02-12-2004 00:00:00 4.24333 C 4.84 g/m*3 4.24 C 0 km/h
123 03-12-2004 00:00:00 3.0975 C 5.28 g/m*3 3.1 C 0 km/h
124 04-12-2004 00:00:00 1.99667 C 4.6 g/m*3 2 C 0 km/h
125 05-12-2004 00:00:00 1.255 C 4.17 g/m*3 1.25 C 0 km/h
Sensor: Nr:Datum:Temp:Abs-Feuchte:Windchill:Wind:
Aussen-T/F 126 06-12-2004 00:00:00 4.54622 C 5.31 g/m*3 4.55 C 0 km/h
127 07-12-2004 00:00:00 4.37667 C 4.85 g/m*3 4.38 C 0 km/h
128 08-12-2004 00:00:00 5.02833 C 5.01 g/m*3 5.03 C 0 km/h
129 09-12-2004 00:00:00 -0.1025 C 3.89 g/m*3 -0.1 C 0 km/h
130 10-12-2004 00:00:00 -3.5675 C 3.26 g/m*3 -3.57 C 0 km/h
131 11-12-2004 00:00:00 -2.575 C 3.5 g/m*3 -2.58 C 0 km/h
132 12-12-2004 00:00:00 -1.58833 C 3.25 g/m*3 -1.59 C 0 km/h
133 13-12-2004 00:00:00 -1.33917 C 3.22 g/m*3 -1.34 C 0 km/h
134 14-12-2004 00:00:00 -2.87083 C 3.12 g/m*3 -2.87 C 0 km/h
135 15-12-2004 00:00:00 -3.50917 C 3.26 g/m*3 -3.51 C 0 km/h
136 16-12-2004 00:00:00 -0.65333 C 4.04 g/m*3 -0.65 C 0 km/h
137 17-12-2004 00:00:00 5.17667 C 5.6 g/m*3 5.18 C 0 km/h
138 18-12-2004 00:00:00 3.6479 C 4.61 g/m*3 3.65 C 0 km/h
139 19-12-2004 00:00:00 1.25083 C 4.26 g/m*3 1.25 C 0 km/h
140 20-12-2004 00:00:00 -2.95667 C 3.26 g/m*3 -2.96 C 0 km/h
141 21-12-2004 00:00:00 -6.37167 C 2.46 g/m*3 -6.37 C 0 km/h
142 22-12-2004 00:00:00 -1.36667 C 3.44 g/m*3 -1.37 C 0 km/h
143 23-12-2004 00:00:00 5.19667 C 5.57 g/m*3 5.2 C 0 km/h
144 24-12-2004 00:00:00 8.21833 C 6.45 g/m*3 8.22 C 0 km/h
145 25-12-2004 00:00:00 6.31333 C 5.5 g/m*3 6.31 C 0 km/h
146 26-12-2004 00:00:00 1.5975 C 4.62 g/m*3 1.6 C 0 km/h
147 27-12-2004 00:00:00 1.34167 C 3.71 g/m*3 1.34 C 0 km/h
148 28-12-2004 00:00:00 0.25917 C 3.75 g/m*3 0.26 C 0 km/h
149 29-12-2004 00:00:00 2.37333 C 4.75 g/m*3 2.37 C 0 km/h
150 30-12-2004 00:00:00 3.3325 C 4.63 g/m*3 3.33 C 0 km/h
Sensor: Nr:Datum:Temp:Abs-Feuchte:Windchill:Wind:
Aussen-T/F 151 31-12-2004 00:00:00 6.41333 C 5.98 g/m*3 6.41 C 0 km/h
152 01-01-2005 00:00:00 7.80171 C 6.26 g/m*3 7.8 C 0 km/h
153 02-01-2005 00:00:00 5.9225 C 4.43 g/m*3 5.92 C 0 km/h
154 03-01-2005 00:00:00 4.92521 C 4.64 g/m*3 4.93 C 0 km/h
155 04-01-2005 00:00:00 5.78083 C 4.93 g/m*3 5.78 C 0 km/h
156 05-01-2005 00:00:00 4.83917 C 5.25 g/m*3 4.84 C 0 km/h
157 06-01-2005 00:00:00 6.5425 C 5.77 g/m*3 6.54 C 0 km/h
158 07-01-2005 00:00:00 10.02917 C 6.15 g/m*3 10.03 C 0 km/h
159 08-01-2005 00:00:00 9.30079 C 5.2 g/m*3 9.3 C 0 km/h
160 09-01-2005 00:00:00 6.9625 C 4.94 g/m*3 6.96 C 0 km/h
161 10-01-2005 00:00:00 10.83083 C 6.2 g/m*3 10.83 C 0 km/h
162 11-01-2005 00:00:00 9.06807 C 5.92 g/m*3 9.07 C 0 km/h
163 12-01-2005 00:00:00 8.70833 C 6.17 g/m*3 8.71 C 0 km/h
164 13-01-2005 00:00:00 4.19917 C 4.35 g/m*3 4.2 C 0 km/h
165 14-01-2005 00:00:00 1.69333 C 4.21 g/m*3 1.69 C 0 km/h
166 15-01-2005 00:00:00 -0.22583 C 3.87 g/m*3 -0.23 C 0 km/h
167 16-01-2005 00:00:00 -2.78333 C 3.26 g/m*3 -2.78 C 0 km/h
168 17-01-2005 00:00:00 2.64583 C 4.56 g/m*3 2.65 C 0 km/h
169 18-01-2005 00:00:00 4.8275 C 5.2 g/m*3 4.83 C 0 km/h
170 19-01-2005 00:00:00 3.46917 C 4.51 g/m*3 3.47 C 0 km/h
171 20-01-2005 00:00:00 8.7 C 6.22 g/m*3 8.7 C 0 km/h
172 21-01-2005 00:00:00 6.0475 C 4.06 g/m*3 6.05 C 0 km/h
173 22-01-2005 00:00:00 3.84167 C 4.3 g/m*3 3.84 C 0 km/h
174 23-01-2005 00:00:00 2.245 C 4.32 g/m*3 2.25 C 0 km/h
175 24-01-2005 00:00:00 -0.1275 C 3.31 g/m*3 -0.13 C 0 km/h
Sensor: Nr:Datum:Temp:Abs-Feuchte:Windchill:Wind:
Aussen-T/F 176 25-01-2005 00:00:00 -1.08333 C 2.78 g/m*3 -1.08 C 0 km/h
177 26-01-2005 00:00:00 -0.69496 C 2.53 g/m*3 -0.69 C 0 km/h
178 27-01-2005 00:00:00 -2.94167 C 2.65 g/m*3 -2.94 C 0 km/h
179 28-01-2005 00:00:00 -0.65417 C 3.36 g/m*3 -0.65 C 0 km/h
180 29-01-2005 00:00:00 -3.79333 C 2.57 g/m*3 -3.79 C 0 km/h
181 30-01-2005 00:00:00 -1.29083 C 3.07 g/m*3 -1.29 C 0 km/h
182 31-01-2005 00:00:00 3.05083 C 4.91 g/m*3 3.05 C 0 km/h
183 01-02-2005 00:00:00 3.62917 C 4.63 g/m*3 3.63 C 0 km/h
184 02-02-2005 00:00:00 4.28417 C 5.35 g/m*3 4.28 C 0 km/h
185 03-02-2005 00:00:00 5.17 C 5.38 g/m*3 5.17 C 0 km/h
186 04-02-2005 00:00:00 2.60917 C 4.59 g/m*3 2.61 C 0 km/h
187 05-02-2005 00:00:00 -0.30583 C 3.2 g/m*3 -0.31 C 0 km/h
188 06-02-2005 00:00:00 0.64333 C 2.99 g/m*3 0.64 C 0 km/h
189 07-02-2005 00:00:00 -0.38034 C 3.12 g/m*3 -0.38 C 0 km/h
190 08-02-2005 00:00:00 -0.04333 C 3.84 g/m*3 -0.04 C 0 km/h
191 09-02-2005 00:00:00 1.38333 C 4.21 g/m*3 1.38 C 0 km/h
192 10-02-2005 00:00:00 5.81917 C 5.24 g/m*3 5.82 C 0 km/h
193 11-02-2005 00:00:00 8.145 C 6.61 g/m*3 8.15 C 0 km/h
194 12-02-2005 00:00:00 9.7825 C 6.9 g/m*3 9.78 C 0 km/h
195 13-02-2005 00:00:00 3.3175 C 4.21 g/m*3 3.32 C 0 km/h
196 14-02-2005 00:00:00 1.97917 C 4.46 g/m*3 1.98 C 0 km/h
197 15-02-2005 00:00:00 0.3958 C 3.67 g/m*3 0.4 C 0 km/h
198 16-02-2005 00:00:00 -0.49083 C 3.08 g/m*3 -0.49 C 0 km/h
199 17-02-2005 00:00:00 -0.4075 C 2.88 g/m*3 -0.41 C 0 km/h
200 18-02-2005 00:00:00 -0.81333 C 2.67 g/m*3 -0.81 C 0 km/h
Sensor: Nr:Datum:Temp:Abs-Feuchte:Windchill:Wind:
Aussen-T/F 201 19-02-2005 00:00:00 0.64583 C 4.03 g/m*3 0.65 C 0 km/h
202 20-02-2005 00:00:00 1.39083 C 4.24 g/m*3 1.39 C 0 km/h
203 21-02-2005 00:00:00 1.055 C 4.1 g/m*3 1.06 C 0 km/h
204 22-02-2005 00:00:00 -0.25196 C 3.03 g/m*3 -0.25 C 0 km/h
205 23-02-2005 00:00:00 -1.68333 C 2.99 g/m*3 -1.68 C 0 km/h
206 24-02-2005 00:00:00 -1.31111 C 2.9 g/m*3 -1.31 C 0 km/h
207 25-02-2005 00:00:00 -2.17778 C 2.74 g/m*3 -2.18 C 0 km/h
208 26-02-2005 00:00:00 -0.5 C 3.46 g/m*3 -0.5 C 0 km/h
209 27-02-2005 00:00:00 -3.63472 C 2.28 g/m*3 -3.63 C 0 km/h
210 28-02-2005 00:00:00 -6.9625 C 1.63 g/m*3 -6.96 C 0 km/h
211 01-03-2005 00:00:00 -5.96528 C 1.39 g/m*3 -5.97 C 0 km/h
212 02-03-2005 00:00:00 -1.48056 C 1.75 g/m*3 -1.48 C 0 km/h
213 03-03-2005 00:00:00 -0.1375 C 2.18 g/m*3 -0.14 C 0 km/h
214 04-03-2005 00:00:00 -0.27982 C 2.64 g/m*3 -0.28 C 0 km/h
215 05-03-2005 00:00:00 -0.07014 C 3.18 g/m*3 -0.07 C 0 km/h
216 06-03-2005 00:00:00 -1.81042 C 2.3 g/m*3 -1.81 C 0 km/h
217 07-03-2005 00:00:00 1.11888 C 3.56 g/m*3 1.12 C 0 km/h
218 08-03-2005 00:00:00 3.91111 C 4.71 g/m*3 3.91 C 0 km/h
219 09-03-2005 00:00:00 3.77708 C 4.91 g/m*3 3.78 C 0 km/h
220 10-03-2005 00:00:00 4.05347 C 4.05 g/m*3 4.05 C 0 km/h
221 11-03-2005 00:00:00 2.94028 C 3.93 g/m*3 2.94 C 0 km/h
222 12-03-2005 00:00:00 2.99514 C 4.05 g/m*3 3 C 0 km/h
223 13-03-2005 00:00:00 4.81528 C 3.58 g/m*3 4.82 C 0 km/h
224 14-03-2005 00:00:00 5.70208 C 3.52 g/m*3 5.7 C 0 km/h
225 15-03-2005 00:00:00 7.14306 C 4.06 g/m*3 7.14 C 0 km/h
Sensor: Nr:Datum:Temp:Abs-Feuchte:Windchill:Wind:
Aussen-T/F 226 16-03-2005 00:00:00 12.97083 C 5.83 g/m*3 12.97 C 0 km/h
227 17-03-2005 00:00:00 14.52308 C 6.69 g/m*3 14.52 C 0 km/h
228 18-03-2005 00:00:00 14.71528 C 7.56 g/m*3 14.72 C 0 km/h
229 19-03-2005 00:00:00 13.49931 C 8.38 g/m*3 13.5 C 0 km/h
230 20-03-2005 00:00:00 11.45278 C 5.64 g/m*3 11.45 C 0 km/h
231 21-03-2005 00:00:00 9.87917 C 4.56 g/m*3 9.88 C 0 km/h
232 22-03-2005 00:00:00 11.33056 C 5.18 g/m*3 11.33 C 0 km/h
233 23-03-2005 00:00:00 14.70556 C 8.23 g/m*3 14.71 C 0 km/h
234 24-03-2005 00:00:00 12.16597 C 7.78 g/m*3 12.17 C 0 km/h
235 25-03-2005 00:00:00 13.2875 C 8.38 g/m*3 13.29 C 0 km/h
236 26-03-2005 00:00:00 12.16515 C 7.66 g/m*3 12.17 C 0 km/h
237 27-03-2005 00:00:00 12.68783 C 9.33 g/m*3 12.69 C 0 km/h
238 28-03-2005 00:00:00 12.38833 C 8.64 g/m*3 12.39 C 0 km/h
239 29-03-2005 00:00:00 13.05 C 8.2 g/m*3 13.05 C 0 km/h
240 30-03-2005 00:00:00 11.45917 C 8.8 g/m*3 11.46 C 0 km/h
241 31-03-2005 00:00:00 11.39 C 7.06 g/m*3 11.39 C 0 km/h
242 01-04-2005 00:00:00 10.41583 C 4.49 g/m*3 10.42 C 0 km/h
243 02-04-2005 00:00:00 10.82167 C 4.65 g/m*3 10.82 C 0 km/h
244 03-04-2005 00:00:00 12.61333 C 5.29 g/m*3 12.61 C 0 km/h
245 04-04-2005 00:00:00 13.35333 C 5.78 g/m*3 13.35 C 0 km/h
246 05-04-2005 00:00:00 11.55833 C 6.43 g/m*3 11.56 C 0 km/h
247 06-04-2005 00:00:00 10.38083 C 6.15 g/m*3 10.38 C 0 km/h
248 07-04-2005 00:00:00 12.06833 C 6.36 g/m*3 12.07 C 0 km/h
249 08-04-2005 00:00:00 7.8825 C 6.35 g/m*3 7.88 C 0 km/h
250 09-04-2005 00:00:00 5.93277 C 4.24 g/m*3 5.93 C 0 km/h
Sensor: Nr:Datum:Temp:Abs-Feuchte:Windchill:Wind:
Aussen-T/F 251 10-04-2005 00:00:00 7.76583 C 5.49 g/m*3 7.77 C 0 km/h
252 11-04-2005 00:00:00 10.6825 C 6.5 g/m*3 10.68 C 0 km/h
253 12-04-2005 00:00:00 11.34333 C 6.78 g/m*3 11.34 C 0 km/h
254 13-04-2005 00:00:00 12.79833 C 6.79 g/m*3 12.8 C 0 km/h
255 14-04-2005 00:00:00 13.26 C 6.74 g/m*3 13.26 C 0 km/h
256 15-04-2005 00:00:00 12.42583 C 7.07 g/m*3 12.43 C 0 km/h
257 16-04-2005 00:00:00 10.05167 C 7.71 g/m*3 10.05 C 0 km/h
258 17-04-2005 00:00:00 11.35583 C 8.37 g/m*3 11.36 C 0 km/h
259 18-04-2005 00:00:00 14.87083 C 7.91 g/m*3 14.87 C 0 km/h
260 19-04-2005 00:00:00 9.63167 C 8.13 g/m*3 9.63 C 0 km/h
261 20-04-2005 00:00:00 9.0325 C 7.01 g/m*3 9.03 C 0 km/h
262 21-04-2005 00:00:00 8.66134 C 4.72 g/m*3 8.66 C 0 km/h
263 22-04-2005 00:00:00 10.07 C 4.67 g/m*3 10.07 C 0 km/h
264 23-04-2005 00:00:00 10.6975 C 6 g/m*3 10.7 C 0 km/h
265 24-04-2005 00:00:00 14.47 C 8.87 g/m*3 14.47 C 0 km/h
266 25-04-2005 00:00:00 13.27583 C 9.86 g/m*3 13.28 C 0 km/h
267 26-04-2005 00:00:00 13.5575 C 8.22 g/m*3 13.56 C 0 km/h
268 27-04-2005 00:00:00 13.41667 C 7.37 g/m*3 13.42 C 0 km/h
269 28-04-2005 00:00:00 13.73417 C 6.84 g/m*3 13.73 C 0 km/h
270 29-04-2005 00:00:00 16.11 C 9.78 g/m*3 16.11 C 0 km/h
271 30-04-2005 00:00:00 20.35917 C 10.93 g/m*3 20.36 C 0 km/h
272 01-05-2005 00:00:00 21.73417 C 10.62 g/m*3 21.73 C 0 km/h
273 02-05-2005 00:00:00 20.5605 C 9.76 g/m*3 20.56 C 0 km/h
274 03-05-2005 00:00:00 17.2475 C 9.82 g/m*3 17.25 C 0 km/h
275 04-05-2005 00:00:00 12.76667 C 9.48 g/m*3 12.77 C 0 km/h
Sensor: Nr:Datum:Temp:Abs-Feuchte:Windchill:Wind:
Aussen-T/F 276 05-05-2005 00:00:00 12.50167 C 6.8 g/m*3 12.5 C 0 km/h
277 06-05-2005 00:00:00 11.26583 C 6.39 g/m*3 11.27 C 0 km/h
278 07-05-2005 00:00:00 8.97167 C 6.69 g/m*3 8.97 C 0 km/h
279 08-05-2005 00:00:00 7.88333 C 6.03 g/m*3 7.88 C 0 km/h
280 09-05-2005 00:00:00 8.5025 C 5.83 g/m*3 8.5 C 0 km/h
281 10-05-2005 00:00:00 9.0275 C 5.44 g/m*3 9.03 C 0 km/h
282 11-05-2005 00:00:00 10.67 C 5.6 g/m*3 10.67 C 0 km/h
283 12-05-2005 00:00:00 12.34917 C 5.9 g/m*3 12.35 C 0 km/h
284 13-05-2005 00:00:00 13.33583 C 5.67 g/m*3 13.34 C 0 km/h
285 14-05-2005 00:00:00 11.34917 C 8.9 g/m*3 11.35 C 0 km/h
286 15-05-2005 00:00:00 10.61176 C 7.06 g/m*3 10.61 C 0 km/h
287 16-05-2005 00:00:00 12.49 C 7.4 g/m*3 12.49 C 0 km/h
288 17-05-2005 00:00:00 10.19 C 6.48 g/m*3 10.19 C 0 km/h
289 18-05-2005 00:00:00 9.50333 C 5.38 g/m*3 9.5 C 0 km/h
290 19-05-2005 00:00:00 13.98667 C 6.1 g/m*3 13.99 C 0 km/h
291 20-05-2005 00:00:00 18.82 C 7.84 g/m*3 18.82 C 0 km/h
292 21-05-2005 00:00:00 17.09333 C 10.54 g/m*3 17.09 C 0 km/h
293 22-05-2005 00:00:00 16.69167 C 9.91 g/m*3 16.69 C 0 km/h
294 23-05-2005 00:00:00 15.47 C 8.81 g/m*3 15.47 C 0 km/h
295 24-05-2005 00:00:00 15.2125 C 7.47 g/m*3 15.21 C 0 km/h
296 25-05-2005 00:00:00 20.55083 C 9.07 g/m*3 20.55 C 0 km/h
297 26-05-2005 00:00:00 23.19417 C 10.55 g/m*3 23.19 C 0 km/h
298 27-05-2005 00:00:00 25.4563 C 11.26 g/m*3 25.46 C 0 km/h
299 28-05-2005 00:00:00 25.91333 C 11.84 g/m*3 25.91 C 0 km/h
300 29-05-2005 00:00:00 24.1375 C 9.98 g/m*3 24.14 C 0 km/h
Sensor: Nr:Datum:Temp:Abs-Feuchte:Windchill:Wind:
Aussen-T/F 301 30-05-2005 00:00:00 14.91167 C 10.28 g/m*3 14.91 C 0 km/h
302 31-05-2005 00:00:00 14.53333 C 7.22 g/m*3 14.53 C 0 km/h
303 01-06-2005 00:00:00 15.82667 C 7.19 g/m*3 15.83 C 0 km/h
304 02-06-2005 00:00:00 18.09167 C 8.27 g/m*3 18.09 C 0 km/h
305 03-06-2005 00:00:00 20.99667 C 10.8 g/m*3 21 C 0 km/h
306 04-06-2005 00:00:00 16.485 C 8.56 g/m*3 16.49 C 0 km/h
307 05-06-2005 00:00:00 14.8025 C 7.74 g/m*3 14.8 C 0 km/h
308 06-06-2005 00:00:00 15.25917 C 7.79 g/m*3 15.26 C 0 km/h
309 07-06-2005 00:00:00 12.26 C 5.02 g/m*3 12.26 C 0 km/h
310 08-06-2005 00:00:00 13.41429 C 6.24 g/m*3 13.41 C 0 km/h
311 09-06-2005 00:00:00 15.84167 C 6.69 g/m*3 15.84 C 0 km/h
312 10-06-2005 00:00:00 16.15833 C 7.12 g/m*3 16.16 C 0 km/h
313 11-06-2005 00:00:00 14.58 C 6.14 g/m*3 14.58 C 0 km/h
314 12-06-2005 00:00:00 14.0525 C 6.27 g/m*3 14.05 C 0 km/h
315 13-06-2005 00:00:00 17.27833 C 6.58 g/m*3 17.28 C 0 km/h
316 14-06-2005 00:00:00 16.55583 C 8.54 g/m*3 16.56 C 0 km/h
317 15-06-2005 00:00:00 20.05167 C 10.11 g/m*3 20.05 C 0 km/h
318 16-06-2005 00:00:00 21.46833 C 9.08 g/m*3 21.47 C 0 km/h
319 17-06-2005 00:00:00 21.405 C 12.17 g/m*3 21.41 C 0 km/h
320 18-06-2005 00:00:00 25.12583 C 10.68 g/m*3 25.13 C 0 km/h
321 19-06-2005 00:00:00 24.75417 C 8.2 g/m*3 24.75 C 0 km/h
322 20-06-2005 00:00:00 25.94538 C 10.02 g/m*3 25.95 C 0 km/h
323 21-06-2005 00:00:00 26.24583 C 10.89 g/m*3 26.25 C 0 km/h
324 22-06-2005 00:00:00 24.59333 C 9.45 g/m*3 24.59 C 0 km/h
325 23-06-2005 00:00:00 25.40417 C 9.9 g/m*3 25.4 C 0 km/h
Sensor: Nr:Datum:Temp:Abs-Feuchte:Windchill:Wind:
Aussen-T/F 326 24-06-2005 00:00:00 27.67167 C 10.61 g/m*3 27.67 C 0 km/h
327 25-06-2005 00:00:00 24.93083 C 12.35 g/m*3 24.93 C 0 km/h
328 26-06-2005 00:00:00 23.99833 C 11.73 g/m*3 24 C 0 km/h
329 27-06-2005 00:00:00 25.26083 C 10.77 g/m*3 25.26 C 0 km/h
330 28-06-2005 00:00:00 26.35917 C 9.96 g/m*3 26.36 C 0 km/h
331 29-06-2005 00:00:00 23.065 C 12.98 g/m*3 23.07 C 0 km/h
332 30-06-2005 00:00:00 20.43667 C 12.48 g/m*3 20.44 C 0 km/h
333 01-07-2005 00:00:00 18.08083 C 11.11 g/m*3 18.08 C 0 km/h
334 02-07-2005 00:00:00 19.26807 C 12.28 g/m*3 19.27 C 0 km/h
335 03-07-2005 00:00:00 24.03333 C 13.19 g/m*3 24.03 C 0 km/h
336 04-07-2005 00:00:00 21.58833 C 11.39 g/m*3 21.59 C 0 km/h
337 05-07-2005 00:00:00 17.17083 C 7.23 g/m*3 17.17 C 0 km/h
338 06-07-2005 00:00:00 16.24167 C 9.2 g/m*3 16.24 C 0 km/h
339 07-07-2005 00:00:00 14.92 C 9.47 g/m*3 14.92 C 0 km/h
340 08-07-2005 00:00:00 16.17583 C 9.49 g/m*3 16.18 C 0 km/h
341 09-07-2005 00:00:00 19.5375 C 9.84 g/m*3 19.54 C 0 km/h
342 10-07-2005 00:00:00 22.93917 C 10.79 g/m*3 22.94 C 0 km/h
343 11-07-2005 00:00:00 23.77333 C 10.84 g/m*3 23.77 C 0 km/h
344 12-07-2005 00:00:00 23.70667 C 11.85 g/m*3 23.71 C 0 km/h
345 13-07-2005 00:00:00 25.555 C 11.6 g/m*3 25.56 C 0 km/h
346 14-07-2005 00:00:00 25.76723 C 12.39 g/m*3 25.77 C 0 km/h
347 15-07-2005 00:00:00 25.0575 C 11.9 g/m*3 25.06 C 0 km/h
348 16-07-2005 00:00:00 23.73917 C 11.46 g/m*3 23.74 C 0 km/h
349 17-07-2005 00:00:00 23.48167 C 9.48 g/m*3 23.48 C 0 km/h
350 18-07-2005 00:00:00 22.98917 C 10.39 g/m*3 22.99 C 0 km/h
Sensor: Nr:Datum:Temp:Abs-Feuchte:Windchill:Wind:
Aussen-T/F 351 19-07-2005 00:00:00 19.165 C 10.11 g/m*3 19.17 C 0 km/h
352 20-07-2005 00:00:00 17.92333 C 9 g/m*3 17.92 C 0 km/h
353 21-07-2005 00:00:00 16.6875 C 8.29 g/m*3 16.69 C 0 km/h
354 22-07-2005 00:00:00 17.13833 C 8.74 g/m*3 17.14 C 0 km/h
355 23-07-2005 00:00:00 17.69 C 7.64 g/m*3 17.69 C 0 km/h
356 24-07-2005 00:00:00 17.87167 C 11.25 g/m*3 17.87 C 0 km/h
357 25-07-2005 00:00:00 20.895 C 11.75 g/m*3 20.9 C 0 km/h
358 26-07-2005 00:00:00 20.33361 C 10.75 g/m*3 20.33 C 0 km/h
359 27-07-2005 00:00:00 23.76 C 13.16 g/m*3 23.76 C 0 km/h
360 28-07-2005 00:00:00 25.00583 C 14.67 g/m*3 25.01 C 0 km/h
361 29-07-2005 00:00:00 23.18917 C 13.92 g/m*3 23.19 C 0 km/h
362 30-07-2005 00:00:00 20.03083 C 11.38 g/m*3 20.03 C 0 km/h
363 31-07-2005 00:00:00 17.3425 C 10.74 g/m*3 17.34 C 0 km/h
364 01-08-2005 00:00:00 19.36167 C 10.99 g/m*3 19.36 C 0 km/h
365 02-08-2005 00:00:00 19.71 C 9.16 g/m*3 19.71 C 0 km/h

Maximal/Minimal-Werte vom 03.08.2004 - 02.08.2005

Sensor Min Max Avg
Temp
(Aussen-T/F)
-12.5 °C
28-02-2005  07:47:06
34.8 °C
27-05-2005  18:12:02
11.26 °C
Abs-Feuchte
(Aussen-T/F)
1.39 g/m*3
01-03-2005  00:00:00
14.99 g/m*3
11-08-2004  00:00:00
7.33 g/m*3
Windchill
(Aussen-T/F)
-6.96 C
28-02-2005  00:00:00
27.67 C
24-06-2005  00:00:00
11.3 C

Die Daten stammen von einer Davis Vantage Pro 2 Wetter-Station und werden unter Linux mit der Software wview2wettercgi und aufbereitet. Alle Angaben erfolgen ohne Gewähr für ihre Vollständigkeit oder Richtigkeit.
Kontakt: Rainer Krienke krienke@uni-koblenz.de . Meine Webseiten an der Uni Koblenz oder privat.
Version: $Revision: 0.78 $